[source: ADDS]
METAR
EDVE 040020Z AUTO 28007KT 7000 // NCD 04/04 Q1021

TAF AMD EDVE 031914Z 0319/0321 26007KT CAVOK EDDV 040020Z 31006KT 280V350 4000 BR BKN004 04/03 Q1022

TAF EDDV 032300Z 0400/0424 28006KT 3000 BR BKN004 TEMPO 0400/0409 1200 BKN001 BECMG 0407/0409 9999 BKN007 BECMG 0409/0411 BKN015 PROB30 TEMPO 0411/0413 BKN012 BECMG 0417/0419 35006KT ETHS 040020Z 32009KT 2500 BR BKN002 03/02 Q1021 AMB

TAF ETHS 031720Z 0318/0403 27010KT 9999 NSW FEW120 BKN280 BECMG 0320/0322 28007KT 4000 BR BKN004 TEMPO 0322/0403 VRB02KT 1000 BR OVC002 ETHC 040020Z AUTO 29007KT 5000 // ////// 04/02 Q1022 ///

TAF ETHC 031419Z 0315/0324 23007KT 9999 NSW SCT150 BKN270 BECMG 0320/0322 27005KT 5000 BR BKN007 TEMPO 0322/0324 28005KT 3000 BR BKN004 EDVK 032020Z 20002KT CAVOK 07/03 Q1024

TAF EDVK 032000Z 0321/0403 VRB03KT CAVOK
TAF
TAF AMD EDVE 031914Z 0319/0321 26007KT CAVOK

TAF EDDV 032300Z 0400/0424 28006KT 3000 BR BKN004 TEMPO 0400/0409 1200 BKN001 BECMG 0407/0409 9999 BKN007 BECMG 0409/0411 BKN015 PROB30 TEMPO 0411/0413 BKN012 BECMG 0417/0419 35006KT

TAF ETHS 031720Z 0318/0403 27010KT 9999 NSW FEW120 BKN280 BECMG 0320/0322 28007KT 4000 BR BKN004 TEMPO 0322/0403 VRB02KT 1000 BR OVC002

TAF ETHC 031419Z 0315/0324 23007KT 9999 NSW SCT150 BKN270 BECMG 0320/0322 27005KT 5000 BR BKN007 TEMPO 0322/0324 28005KT 3000 BR BKN004

TAF EDVK 032000Z 0321/0403 VRB03KT CAVOK

SR / SS: 05:56 / 17:02 UTC (EDVE 2021-03-04)
Wir heißen Patrick und Fabrizio als neue Flugschüler willkommen und wünschen eine erfolgreiche Ausbildung! +++ Frederik hat seinen ersten Alleinflug absolviert! Herzlichen Glückwunsch und weiterhin Happy Landings! +++ Willkommen in der FFG, Torben! Viel Erfolg bei der Ausbildung! +++ Wir begrüßen Jens als neues Mitglied der FFG! Viel Spass und always Happy Landings! +++ Herzlich willkommen bei der FFG, Sonja! Viel Spass und always Happy Landings! +++ Wir heißen Marek und Stefan als neue Flugschüler willkommen und wünschen eine erfolgreiche Ausbildung! +++ Wir gratulieren Felix und Julian zu ihrem ersten Soloflug! Herzlichen Glückwunsch und always Happy landings! +++ Mathias hat seine PPL-Prüfung bestanden! Herzlichen Glückwunsch und weiterhin Happy Landings! +++ Wir begrüßen Karsten in den Reihen der FFG! Viel Erfolg bei der Ausbildung! +++ Gianluca hat seine PPL-Prüfung bestanden! Herzlichen Glückwunsch und weiterhin Happy Landings!

Webcam Wetter am Flughafen Braunschweig-Wolfsburg Richtung Norden. Das Bild wird alle 60 Sekunden aktualisiert.

Neues Bild in 60 Sekunden

Letztes NOTAM EDVE
von 02.03.2021 1537Z bis 31.05.2021 2359Z
DUE TO OUTAGE OF DLE DVOR/DME THE FLW CHANGES TO SID OCCUR: GPS/FMS RNAV OVERLAY REMAIN UNCHANGED. AMEND DLE DVOR/DME TO READ DLE INT. [more]

Letztes NOTAM EDCB
von 26.01.2021 2057Z bis 31.03.2021 2359Z
GRASS RWY 09/27 CLSD.

Letztes NOTAM EDBC
von 25.02.2021 1319Z bis 25.05.2021 2359Z
COCHSTEDT CTR DEACTIVATED.

Letztes NOTAM EDVM
von 22.02.2021 1058Z bis 05.03.2021 1800Z
WIP W OF RWY 07.

Letztes NOTAM EDDV
von 02.03.2021 1534Z bis 31.05.2021 2359Z
DUE TO OUTAGE OF DLE DVOR/DME THE FLW CHANGES TO SID OCCUR: GPS (FMS) RNAV OVERLAY REMAINS UNCHANGED. RWY 09L/R: WERRA 3Y/3G AND WRB 3 [more]

Letztes NOTAM EDVK
von 28.02.2021 2300Z bis 28.03.2021 2159Z
ILS CAT II RWY 27 DOWNGRADED TO CAT I.

Letztes NOTAM EDVS
von 03.02.2021 1505Z bis 03.05.2021 2359Z
AD AVBL ONLY FOR HOMEBASED PILOTS.